Air Navigation Services of Czech Republic  
Last data update:  22.05.2019 03:04:26 UTC Česká verze
   METEO Page displayed:  22.05.2019 03:05:21 UTC  
help
METAR EDDB 220250Z 30011KT 9999 BKN007 14/13 Q1009 NOSIG=
METAR EDDC 220250Z 31009KT 280V350 4500 -RADZ BR BKN004 13/12 Q1009=
METAR EDDE 220250Z 29010KT 9999 BKN027 12/10 Q1013=
METAR EDDF 220250Z 29009KT 9999 FEW012 BKN016 12/10 Q1016 TEMPO BKN012=
METAR EDDM 220250Z 26010KT 9999 -RA FEW006 BKN008 11/10 Q1015 TEMPO RA=
METAR EDDN 220250Z 28012KT 3900 -RA BR BKN007 11/11 Q1014=
METAR EDDP 220250Z 31013KT 5000 BR OVC006 12/11 Q1011 BECMG 30015G25KT=
METAR EDDT 220250Z 30008KT 270V340 9000 BKN005 14/13 Q1009 NOSIG=
METAR EDQM NIL
METAR EPBY 220300Z 08005KT 8000 SCT032 14/13 Q1005=
METAR EPGD 220300Z 29003KT 5000 0150W BCFG BR NSC 12/12 Q1006=
METAR EPKK 220300Z 29006KT 9999 FEW010CB BKN033 13/13 Q1001 RESHRA=
METAR EPKT 220300Z 33004KT 5000 BR SCT003 OVC005 13/12 Q1002=
METAR EPLL 220300Z 34004KT 320V020 9999 BKN007 BKN024 11/10 Q1003=
METAR EPPO 220300Z 32006KT 7000 -SHRA BKN002 BKN010CB 15/15 Q1005 R10/290095=
METAR EPRZ 220300Z 19015KT 9999 -SHRA FEW006 SCT020CB BKN033 14/12 Q1001=
METAR EPWA 220300Z 05012KT CAVOK 12/10 Q1003 NOSIG=
METAR EPWR 220300Z 31012KT 9999 BKN005 15/14 Q1004=
METAR LHBP 220300Z 22007KT 9999 -RA FEW015 BKN040 14/14 Q1008 NOSIG=
METAR LHSM 220245Z AUTO 21002KT CAVOK 13/11 Q1009=
METAR LKBC 220300Z AUTO 27011KT 9999 BKN009 OVC014 13/12 Q1008=
METAR LKCV 220300Z 29016KT 7000 RA SCT010 BKN020 OVC050 14/14 Q1007 RERA NOSIG RMK WHT WHT=
METAR LKKB 220300Z 28010KT 7000 -RA OVC025 14/12 Q1008 NOSIG RMK WHT=
METAR LKKU NIL
METAR LKKV 220300Z 28013KT 9999 SCT008 OVC013 11/10 Q1011 RMK REG QNH 1002=
METAR LKLN 220300Z AUTO 26005KT 200V300 9999 13/12 Q1011=
METAR LKMT 220300Z 23011KT 9999 -RA FEW018 OVC023 14/13 Q1004 TEMPO SHRA FEW020TCU RMK REG QNH 1002=
METAR LKNA 220300Z 27012KT 9999 -RA SCT021 OVC060 12/11 Q1007 RMK BLU=
METAR LKPD 220300Z 27015KT 9999 -RA SCT006 OVC015 14/13 Q1006 RMK WHT=
METAR LKPJ 220300Z AUTO 28007KT 9999 OVC040/// 15/13 Q1005=
METAR LKPR 220300Z 29010KT 9999 FEW017 13/11 Q1009 NOSIG RMK REG QNH 1002=
METAR LKTB 220300Z 23008KT 9999 -RA FEW016 SCT031 13/13 Q1006 NOSIG RMK REG QNH 1002=
METAR LKVO NIL
METAR LOWI 220250Z AUTO VRB01KT 9999 FEW002 BKN070 09/09 Q1016=
METAR LOWL 220250Z AUTO 25011KT 9999 -SHRA FEW010 SCT012 BKN016 12/11 Q1012=
METAR LOWS 220250Z AUTO 13005KT 9000 RA FEW015 SCT026 BKN036 10/09 Q1014=
METAR LOWW 220250Z 28016KT CAVOK 14/10 Q1008 NOSIG=
METAR LZIB 220300Z 28012KT 9999 FEW022 BKN091 14/10 Q1007=
METAR LZKZ 220300Z 18009KT 9999 -RA BKN011 OVC020 12/11 Q1006=
METAR LZMC NIL
METAR LZPP 220300Z AUTO 23009KT 9999 -RA FEW032/// SCT057/// OVC075/// 13/11 Q1007=
METAR LZSL 220300Z 17004KT 140V200 9999 -RA SCT013 OVC016 12/11 Q1006=
METAR LZTT 220300Z 24010KT 9999 -RA FEW020 BKN046 BKN075 10/09 Q1004=
METAR LZZI 220300Z 23009KT 9999 FEW008 BKN016 OVC025 13/11 Q1004=